createdAt,value
2022-10-11T00:00:25.217Z,102277.78
2022-10-11T00:02:26.897Z,102282.16
2022-10-11T00:04:28.315Z,102288.31
2022-10-11T00:06:29.824Z,102284.78
2022-10-11T00:08:32.631Z,102280.41
2022-10-11T00:10:34.561Z,102290.94
2022-10-11T00:12:36.934Z,102284.75
2022-10-11T00:14:39.092Z,102289.13
2022-10-11T00:16:44.254Z,102282.97
2022-10-11T00:18:45.690Z,102289.13
2022-10-11T00:20:47.155Z,102291.75
2022-10-11T00:22:49.515Z,102301.41
2022-10-11T00:24:52.660Z,102307.53
2022-10-11T00:26:54.130Z,102315.44
2022-10-11T00:28:55.737Z,102321.59
2022-10-11T00:30:57.671Z,102318.94
2022-10-11T00:32:59.145Z,102325.97
2022-10-11T00:35:04.726Z,102323.31
2022-10-11T00:37:06.203Z,102318.03
2022-10-11T00:39:07.673Z,102323.28
2022-10-11T00:41:09.359Z,102324.16
2022-10-11T00:43:17.078Z,102327.66
2022-10-11T00:45:27.717Z,102325.91
2022-10-11T00:47:29.148Z,102328.53
2022-10-11T00:49:36.719Z,102323.28
2022-10-11T00:51:46.571Z,102325.03
2022-10-11T00:53:51.023Z,102329.41
2022-10-11T00:56:02.146Z,102326.78
2022-10-11T00:58:04.484Z,102328.53
2022-10-11T01:00:09.354Z,102330.28
2022-10-11T01:02:12.069Z,102325.00
2022-10-11T01:04:13.526Z,102329.38
2022-10-11T01:06:15.018Z,102332.00
2022-10-11T01:08:16.512Z,102328.44
2022-10-11T01:10:18.031Z,102332.81
2022-10-11T01:12:23.439Z,102337.22
2022-10-11T01:14:59.939Z,102336.28
2022-10-11T01:17:10.218Z,102332.75
2022-10-11T01:19:11.591Z,102334.50
2022-10-11T01:21:44.775Z,102338.00
2022-10-11T01:24:20.721Z,102336.19
2022-10-11T01:26:27.850Z,102330.03
2022-10-11T01:28:49.097Z,102340.53
2022-10-11T01:30:52.090Z,102350.13
2022-10-11T01:33:00.668Z,102341.34
2022-10-11T01:35:16.398Z,102347.47
2022-10-11T01:37:23.709Z,102349.25
2022-10-11T01:39:38.789Z,102354.50
2022-10-11T01:41:50.383Z,102355.34
2022-10-11T01:44:00.296Z,102352.69
2022-10-11T01:46:04.173Z,102353.56
2022-10-11T01:48:13.769Z,102362.31
2022-10-11T01:50:38.968Z,102362.25
2022-10-11T01:52:45.024Z,102359.63
2022-10-11T01:55:09.043Z,102359.63
2022-10-11T01:57:36.173Z,102353.50
2022-10-11T02:00:01.801Z,102358.72
2022-10-11T02:02:24.598Z,102363.97
2022-10-11T02:04:32.875Z,102367.44
2022-10-11T02:06:48.250Z,102370.06
2022-10-11T02:09:04.366Z,102369.16
2022-10-11T02:11:41.469Z,102376.13
2022-10-11T02:13:52.947Z,102365.63
2022-10-11T02:15:58.330Z,102376.13
2022-10-11T02:18:05.950Z,102377.00
2022-10-11T02:20:12.619Z,102380.47
2022-10-11T02:22:22.014Z,102369.06
2022-10-11T02:24:30.507Z,102375.16
2022-10-11T02:26:33.820Z,102370.75
2022-10-11T02:28:39.431Z,102375.16
2022-10-11T02:30:42.502Z,102372.50
2022-10-11T02:32:46.322Z,102376.00
2022-10-11T02:34:53.545Z,102382.13
2022-10-11T02:37:16.821Z,102386.41
2022-10-11T02:39:38.472Z,102391.66
2022-10-11T02:41:43.127Z,102389.03
2022-10-11T02:43:59.457Z,102398.66
2022-10-11T02:46:02.450Z,102403.03
2022-10-11T02:48:07.146Z,102391.63
2022-10-11T02:50:10.933Z,102398.66
2022-10-11T02:52:14.259Z,102402.19
2022-10-11T02:54:15.679Z,102406.56
2022-10-11T02:56:17.094Z,102403.91
2022-10-11T02:58:18.603Z,102407.41
2022-10-11T03:00:20.084Z,102399.53
2022-10-11T03:02:21.606Z,102401.28
2022-10-11T03:04:23.041Z,102416.19
2022-10-11T03:06:24.456Z,102405.66
2022-10-11T03:08:26.253Z,102412.66
2022-10-11T03:10:27.672Z,102409.13
2022-10-11T03:12:29.110Z,102416.97
2022-10-11T03:14:30.568Z,102420.47
2022-10-11T03:16:32.014Z,102424.84
2022-10-11T03:18:33.482Z,102428.31
2022-10-11T03:20:35.415Z,102430.06
2022-10-11T03:22:36.879Z,102429.16
2022-10-11T03:24:38.317Z,102429.13
2022-10-11T03:26:39.824Z,102430.00
2022-10-11T03:28:41.403Z,102431.69
2022-10-11T03:30:42.930Z,102432.56
2022-10-11T03:32:44.540Z,102436.03
2022-10-11T03:34:45.941Z,102435.13
2022-10-11T03:36:47.498Z,102428.09
2022-10-11T03:38:48.943Z,102430.69
2022-10-11T03:40:50.816Z,102430.69
2022-10-11T03:42:52.269Z,102431.53
2022-10-11T03:44:53.799Z,102435.91
2022-10-11T03:46:55.246Z,102431.50
2022-10-11T03:48:56.731Z,102437.63
2022-10-11T03:50:58.152Z,102433.19
2022-10-11T03:52:59.606Z,102441.91
2022-10-11T03:55:01.246Z,102441.00
2022-10-11T03:57:02.704Z,102443.59
2022-10-11T03:59:04.208Z,102440.94
2022-10-11T04:01:05.660Z,102452.28
2022-10-11T04:03:07.108Z,102447.91
2022-10-11T04:05:08.894Z,102443.50
2022-10-11T04:07:10.560Z,102453.13
2022-10-11T04:09:12.000Z,102451.34
2022-10-11T04:11:13.437Z,102454.81
2022-10-11T04:13:15.147Z,102456.53
2022-10-11T04:15:16.712Z,102465.25
2022-10-11T04:17:18.181Z,102465.22
2022-10-11T04:19:20.206Z,102469.59
2022-10-11T04:21:21.625Z,102476.59
2022-10-11T04:23:23.105Z,102477.44
2022-10-11T04:25:24.601Z,102480.03
2022-10-11T04:27:29.535Z,102488.75
2022-10-11T04:29:32.752Z,102495.69
2022-10-11T04:31:34.455Z,102491.28
2022-10-11T04:33:35.956Z,102505.19
2022-10-11T04:35:37.499Z,102496.44
2022-10-11T04:37:38.986Z,102500.91
2022-10-11T04:39:40.445Z,102502.63
2022-10-11T04:41:41.897Z,102497.38
2022-10-11T04:43:43.348Z,102504.31
2022-10-11T04:45:44.806Z,102507.75
2022-10-11T04:47:46.939Z,102522.59
2022-10-11T04:49:48.567Z,102518.19
2022-10-11T04:51:50.230Z,102516.44
2022-10-11T04:53:51.801Z,102520.84
2022-10-11T04:56:08.967Z,102504.28
2022-10-11T04:58:10.828Z,102519.16
2022-10-11T05:00:12.731Z,102521.88
2022-10-11T05:02:14.206Z,102517.50
2022-10-11T05:04:15.739Z,102528.81
2022-10-11T05:06:17.247Z,102528.81
2022-10-11T05:08:19.942Z,102528.00
2022-10-11T05:10:21.413Z,102519.25
2022-10-11T05:12:23.289Z,102524.53
2022-10-11T05:14:24.971Z,102520.19
2022-10-11T05:16:26.450Z,102527.19
2022-10-11T05:18:29.083Z,102521.09
2022-10-11T05:20:30.547Z,102523.72
2022-10-11T05:22:31.975Z,102529.81
2022-10-11T05:24:33.495Z,102541.25
2022-10-11T05:26:35.173Z,102532.53
2022-10-11T05:28:36.699Z,102536.94
2022-10-11T05:30:38.233Z,102536.94
2022-10-11T05:32:39.753Z,102541.31
2022-10-11T05:34:41.201Z,102545.72
2022-10-11T05:36:42.658Z,102543.97
2022-10-11T05:38:44.288Z,102550.94
2022-10-11T05:40:45.806Z,102549.16
2022-10-11T05:42:47.244Z,102552.66
2022-10-11T05:44:48.780Z,102557.03
2022-10-11T05:46:50.214Z,102560.56
2022-10-11T05:48:51.709Z,102560.56
2022-10-11T05:50:58.106Z,102557.94
2022-10-11T05:52:59.598Z,102561.44
2022-10-11T05:55:01.108Z,102575.47
2022-10-11T05:57:02.618Z,102573.72
2022-10-11T05:59:05.024Z,102572.81
2022-10-11T06:01:06.491Z,102572.84
2022-10-11T06:03:10.940Z,102571.97
2022-10-11T06:05:12.924Z,102576.34
2022-10-11T06:07:14.364Z,102582.50
2022-10-11T06:09:15.813Z,102586.03
2022-10-11T06:11:26.286Z,102589.50
2022-10-11T06:13:27.693Z,102590.38
2022-10-11T06:15:29.260Z,102590.41
2022-10-11T06:17:30.785Z,102586.91
2022-10-11T06:19:32.327Z,102599.16
2022-10-11T06:21:33.760Z,102596.56
2022-10-11T06:23:35.242Z,102609.66
2022-10-11T06:25:36.889Z,102607.06
2022-10-11T06:27:38.413Z,102603.59
2022-10-11T06:29:39.847Z,102614.13
2022-10-11T06:31:41.295Z,102613.28
2022-10-11T06:33:42.787Z,102613.31
2022-10-11T06:35:44.205Z,102613.38
2022-10-11T06:37:45.698Z,102617.81
2022-10-11T06:39:47.140Z,102615.22
2022-10-11T06:41:48.628Z,102617.06
2022-10-11T06:43:50.170Z,102606.66
2022-10-11T06:45:51.599Z,102610.19
2022-10-11T06:47:53.084Z,102619.00
2022-10-11T06:49:54.564Z,102624.31
2022-10-11T06:51:56.067Z,102625.22
2022-10-11T06:53:59.699Z,102627.94
2022-10-11T06:56:05.990Z,102628.84
2022-10-11T06:58:07.768Z,102632.38
2022-10-11T07:00:12.619Z,102628.91
2022-10-11T07:02:14.344Z,102633.31
2022-10-11T07:04:15.783Z,102637.75
2022-10-11T07:06:22.471Z,102643.09
2022-10-11T07:08:23.860Z,102640.50
2022-10-11T07:10:25.321Z,102639.66
2022-10-11T07:12:26.946Z,102643.19
2022-10-11T07:14:28.636Z,102651.09
2022-10-11T07:16:30.575Z,102653.78
2022-10-11T07:18:32.543Z,102653.81
2022-10-11T07:20:34.025Z,102660.91
2022-10-11T07:22:35.494Z,102659.22
2022-10-11T07:24:36.975Z,102661.91
2022-10-11T07:26:39.330Z,102661.94
2022-10-11T07:28:41.674Z,102664.63
2022-10-11T07:30:44.115Z,102664.72
2022-10-11T07:32:45.519Z,102670.91
2022-10-11T07:34:47.002Z,102670.97
2022-10-11T07:36:48.819Z,102671.00
2022-10-11T07:38:50.531Z,102669.28
2022-10-11T07:40:52.134Z,102669.28
2022-10-11T07:42:53.675Z,102668.44
2022-10-11T07:44:55.109Z,102676.34
2022-10-11T07:46:56.514Z,102672.00
2022-10-11T07:48:58.285Z,102675.53
2022-10-11T07:51:08.306Z,102674.72
2022-10-11T07:53:09.949Z,102674.78
2022-10-11T07:55:11.369Z,102680.13
2022-10-11T07:57:12.794Z,102671.41
2022-10-11T07:59:14.217Z,102680.25
2022-10-11T08:01:15.680Z,102676.78
2022-10-11T08:03:17.144Z,102677.72
2022-10-11T08:05:18.676Z,102678.66
2022-10-11T08:07:20.085Z,102684.00
2022-10-11T08:09:21.492Z,102677.91
2022-10-11T08:11:29.053Z,102685.91
2022-10-11T08:13:30.522Z,102683.34
2022-10-11T08:15:32.372Z,102685.16
2022-10-11T08:17:33.842Z,102686.09
2022-10-11T08:19:35.342Z,102687.06
2022-10-11T08:21:37.105Z,102687.13
2022-10-11T08:23:39.099Z,102692.47
2022-10-11T08:25:43.927Z,102686.38
2022-10-11T08:27:45.348Z,102690.81
2022-10-11T08:29:46.999Z,102682.94
2022-10-11T08:31:48.525Z,102688.25
2022-10-11T08:33:50.197Z,102690.97
2022-10-11T08:35:53.014Z,102692.75
2022-10-11T08:37:54.701Z,102698.06
2022-10-11T08:39:56.245Z,102700.75
2022-10-11T08:42:15.416Z,102703.41
2022-10-11T08:45:08.939Z,102701.72
2022-10-11T08:47:13.670Z,102696.47
2022-10-11T08:49:15.564Z,102705.34
2022-10-11T08:51:38.557Z,102707.97
2022-10-11T08:53:46.360Z,102705.34
2022-10-11T08:55:52.218Z,102705.38
2022-10-11T08:57:56.429Z,102708.06
2022-10-11T09:00:13.657Z,102708.06
2022-10-11T09:02:23.796Z,102713.34
2022-10-11T09:04:25.778Z,102714.25
2022-10-11T09:06:45.879Z,102713.38
2022-10-11T09:08:59.441Z,102715.13
2022-10-11T09:11:36.160Z,102708.13
2022-10-11T09:13:58.713Z,102708.13
2022-10-11T09:16:12.538Z,102712.53
2022-10-11T09:19:08.149Z,102718.69
2022-10-11T09:21:40.363Z,102719.56
2022-10-11T09:24:10.523Z,102722.22
2022-10-11T09:26:25.604Z,102721.31
2022-10-11T09:28:36.212Z,102722.19
2022-10-11T09:30:45.640Z,102715.13
2022-10-11T09:33:11.637Z,102718.59
2022-10-11T09:35:18.593Z,102718.63
2022-10-11T09:37:29.678Z,102720.38
2022-10-11T09:39:37.142Z,102721.25
2022-10-11T09:41:50.380Z,102719.44
2022-10-11T09:43:52.509Z,102722.94
2022-10-11T09:45:54.023Z,102718.50
2022-10-11T09:47:59.496Z,102723.72
2022-10-11T09:50:04.354Z,102723.69
2022-10-11T09:52:14.133Z,102724.53
2022-10-11T09:54:17.638Z,102729.78
2022-10-11T09:56:19.504Z,102723.56
2022-10-11T09:58:33.820Z,102727.97
2022-10-11T10:00:35.496Z,102727.91
2022-10-11T10:02:51.639Z,102728.75
2022-10-11T10:05:04.356Z,102723.44
2022-10-11T10:07:10.982Z,102739.31
2022-10-11T10:09:38.474Z,102727.75
2022-10-11T10:11:39.922Z,102727.72
2022-10-11T10:13:59.447Z,102730.34
2022-10-11T10:16:01.273Z,102725.88
2022-10-11T10:18:06.525Z,102732.00
2022-10-11T10:20:21.695Z,102731.94
2022-10-11T10:22:27.277Z,102734.50
2022-10-11T10:24:31.638Z,102736.19
2022-10-11T10:26:33.331Z,102736.06
2022-10-11T10:28:35.698Z,102745.63
2022-10-11T10:30:37.226Z,102736.63
2022-10-11T10:32:48.210Z,102742.66
2022-10-11T10:35:02.954Z,102740.75
2022-10-11T10:37:19.832Z,102746.84
2022-10-11T10:39:40.450Z,102749.34
2022-10-11T10:41:42.050Z,102747.53
2022-10-11T10:43:55.666Z,102737.75
2022-10-11T10:46:21.746Z,102732.31
2022-10-11T10:49:11.663Z,102733.78
2022-10-11T10:51:11.550Z,102738.06
2022-10-11T10:53:39.019Z,102736.28
2022-10-11T10:55:44.872Z,102738.81
2022-10-11T10:58:06.318Z,102734.69
2022-10-11T11:00:17.395Z,102737.44
2022-10-11T11:02:46.658Z,102736.66
2022-10-11T11:07:32.942Z,102743.34
2022-10-11T11:09:50.095Z,102742.09
2022-10-11T11:12:27.171Z,102738.72
2022-10-11T11:14:37.351Z,102733.50
2022-10-11T11:17:16.561Z,102737.59
2022-10-11T11:19:20.924Z,102734.44
2022-10-11T11:21:39.117Z,102726.97
2022-10-11T11:24:20.511Z,102727.97
2022-10-11T11:26:44.249Z,102728.66
2022-10-11T11:29:07.230Z,102723.56
2022-10-11T11:31:59.393Z,102719.88
2022-10-11T11:34:06.451Z,102721.03
2022-10-11T11:36:16.582Z,102721.06
2022-10-11T11:38:40.329Z,102723.16
2022-10-11T11:40:49.097Z,102721.63
2022-10-11T11:43:23.054Z,102721.50
2022-10-11T11:45:30.387Z,102722.63
2022-10-11T11:47:36.756Z,102721.25
2022-10-11T11:51:46.804Z,102722.97
2022-10-11T11:54:06.332Z,102715.63
2022-10-11T11:56:26.801Z,102711.28
2022-10-11T11:58:38.689Z,102717.34
2022-10-11T12:01:04.163Z,102714.91
2022-10-11T12:03:16.158Z,102720.56
2022-10-11T12:05:21.960Z,102716.22
2022-10-11T12:07:25.526Z,102714.69
2022-10-11T12:09:27.441Z,102703.69
2022-10-11T12:11:41.976Z,102712.06
2022-10-11T12:13:44.614Z,102709.72
2022-10-11T12:15:59.385Z,102703.69
2022-10-11T12:18:16.773Z,102702.97
2022-10-11T12:20:31.491Z,102701.25
2022-10-11T12:22:50.919Z,102703.22
2022-10-11T12:25:17.602Z,102706.31
2022-10-11T12:27:44.738Z,102700.50
2022-10-11T12:29:46.290Z,102698.03
2022-10-11T12:31:50.238Z,102699.09
2022-10-11T12:34:03.206Z,102699.19
2022-10-11T12:36:34.017Z,102700.34
2022-10-11T12:38:39.982Z,102702.22
2022-10-11T12:40:43.109Z,102701.41
2022-10-11T12:43:12.307Z,102697.88
2022-10-11T12:45:13.672Z,102696.03
2022-10-11T12:47:40.924Z,102695.06
2022-10-11T12:50:06.865Z,102689.00
2022-10-11T12:52:17.539Z,102697.03
2022-10-11T12:54:44.186Z,102692.66
2022-10-11T12:57:13.516Z,102696.16
2022-10-11T12:59:21.278Z,102698.78
2022-10-11T13:01:26.304Z,102688.13
2022-10-11T13:03:32.816Z,102689.03
2022-10-11T13:05:45.552Z,102689.00
2022-10-11T13:07:49.258Z,102688.06
2022-10-11T13:09:53.990Z,102688.94
2022-10-11T13:11:58.810Z,102682.75
2022-10-11T13:14:07.858Z,102688.19
2022-10-11T13:16:16.897Z,102686.56
2022-10-11T13:18:18.871Z,102686.66
2022-10-11T13:20:30.587Z,102689.50
2022-10-11T13:22:34.575Z,102688.69
2022-10-11T13:24:38.706Z,102688.72
2022-10-11T13:26:40.756Z,102686.00
2022-10-11T13:28:42.931Z,102692.09
2022-10-11T13:30:48.246Z,102687.59
2022-10-11T13:32:51.907Z,102681.38
2022-10-11T13:37:03.220Z,102684.84
2022-10-11T13:39:04.774Z,102680.41
2022-10-11T13:41:09.126Z,102671.56
2022-10-11T13:43:13.512Z,102674.19
2022-10-11T13:45:19.073Z,102676.81
2022-10-11T13:47:24.781Z,102674.16
2022-10-11T13:49:29.104Z,102675.97
2022-10-11T13:51:37.784Z,102671.53
2022-10-11T13:53:56.151Z,102676.06
2022-10-11T13:55:59.148Z,102676.03
2022-10-11T13:58:03.705Z,102673.31
2022-10-11T14:00:20.017Z,102674.16
2022-10-11T14:02:23.882Z,102675.06
2022-10-11T14:04:29.532Z,102677.66
2022-10-11T14:06:52.830Z,102667.88
2022-10-11T14:08:56.254Z,102670.56
2022-10-11T14:11:02.490Z,102665.25
2022-10-11T14:13:30.564Z,102670.53
2022-10-11T14:15:35.606Z,102668.72
2022-10-11T14:17:45.416Z,102668.72
2022-10-11T14:20:07.389Z,102665.94
2022-10-11T14:22:18.265Z,102674.75
2022-10-11T14:24:20.604Z,102668.53
2022-10-11T14:26:24.389Z,102672.03
2022-10-11T14:28:26.063Z,102666.72
2022-10-11T14:30:28.551Z,102670.25
2022-10-11T14:32:33.708Z,102675.53
2022-10-11T14:34:35.672Z,102666.72
2022-10-11T14:36:37.105Z,102665.84
2022-10-11T14:38:38.606Z,102676.47
2022-10-11T14:40:40.357Z,102672.91
2022-10-11T14:42:42.066Z,102672.91
2022-10-11T14:44:43.604Z,102675.66
2022-10-11T14:46:46.431Z,102675.69
2022-10-11T14:48:56.744Z,102675.75
2022-10-11T14:51:01.129Z,102673.91
2022-10-11T14:53:03.766Z,102676.56
2022-10-11T14:55:05.292Z,102677.47
2022-10-11T14:57:06.753Z,102677.47
2022-10-11T14:59:10.102Z,102677.44
2022-10-11T15:01:15.661Z,102676.63
2022-10-11T15:03:17.152Z,102673.16
2022-10-11T15:05:19.617Z,102671.50
2022-10-11T15:07:21.099Z,102676.88
2022-10-11T15:09:23.084Z,102671.63
2022-10-11T15:11:24.998Z,102678.75
2022-10-11T15:13:26.396Z,102672.56
2022-10-11T15:15:30.495Z,102684.13
2022-10-11T15:17:31.925Z,102675.34
2022-10-11T15:19:33.370Z,102675.41
2022-10-11T15:21:35.359Z,102684.25
2022-10-11T15:23:36.784Z,102681.59
2022-10-11T15:25:40.119Z,102684.28
2022-10-11T15:27:42.351Z,102687.03
2022-10-11T15:29:43.769Z,102685.41
2022-10-11T15:31:46.497Z,102677.50
2022-10-11T15:33:48.040Z,102690.91
2022-10-11T15:35:49.497Z,102684.78
2022-10-11T15:37:56.590Z,102679.47
2022-10-11T15:39:58.018Z,102683.09
2022-10-11T15:41:59.925Z,102678.72
2022-10-11T15:44:01.365Z,102676.13
2022-10-11T15:46:03.284Z,102677.91
2022-10-11T15:48:05.505Z,102685.91
2022-10-11T15:50:15.583Z,102678.94
2022-10-11T15:52:16.994Z,102683.38
2022-10-11T15:54:18.440Z,102677.16
2022-10-11T15:56:19.986Z,102673.72
2022-10-11T15:58:24.677Z,102679.09
2022-10-11T16:00:26.659Z,102677.38
2022-10-11T16:02:28.448Z,102679.16
2022-10-11T16:04:30.214Z,102677.38
2022-10-11T16:06:33.238Z,102682.69
2022-10-11T16:08:35.400Z,102682.75
2022-10-11T16:10:37.607Z,102675.69
2022-10-11T16:12:39.038Z,102679.25
2022-10-11T16:14:44.899Z,102677.47
2022-10-11T16:16:48.555Z,102675.75
2022-10-11T16:18:51.050Z,102676.66
2022-10-11T16:20:52.551Z,102687.34
2022-10-11T16:22:55.337Z,102686.50
2022-10-11T16:24:56.744Z,102682.97
2022-10-11T16:26:58.217Z,102688.31
2022-10-11T16:28:59.747Z,102688.34
2022-10-11T16:31:13.917Z,102692.81
2022-10-11T16:33:15.330Z,102691.13
2022-10-11T16:35:17.549Z,102684.97
2022-10-11T16:37:19.153Z,102685.84
2022-10-11T16:39:20.682Z,102692.13
2022-10-11T16:41:22.127Z,102691.28
2022-10-11T16:43:23.600Z,102694.06
2022-10-11T16:45:25.020Z,102697.69
2022-10-11T16:47:26.568Z,102695.06
2022-10-11T16:49:28.598Z,102696.84
2022-10-11T16:51:30.227Z,102693.38
2022-10-11T16:53:34.212Z,102692.56
2022-10-11T16:55:35.658Z,102696.16
2022-10-11T16:57:37.827Z,102690.00
2022-10-11T16:59:39.375Z,102693.59
2022-10-11T17:01:41.594Z,102691.00
2022-10-11T17:03:43.121Z,102688.41
2022-10-11T17:05:44.548Z,102693.72
2022-10-11T17:07:46.047Z,102692.91
2022-10-11T17:09:48.625Z,102696.50
2022-10-11T17:11:50.438Z,102694.81
2022-10-11T17:13:53.470Z,102691.31
2022-10-11T17:15:55.003Z,102699.28
2022-10-11T17:17:56.430Z,102705.47
2022-10-11T17:19:57.948Z,102700.19
2022-10-11T17:21:59.691Z,102700.19
2022-10-11T17:24:01.112Z,102698.44
2022-10-11T17:26:10.785Z,102688.72
2022-10-11T17:28:13.208Z,102694.09
2022-10-11T17:30:15.180Z,102689.69
2022-10-11T17:32:16.609Z,102690.59
2022-10-11T17:34:18.239Z,102696.84
2022-10-11T17:36:19.703Z,102693.34
2022-10-11T17:38:22.301Z,102697.75
2022-10-11T17:40:23.711Z,102693.34
2022-10-11T17:42:25.129Z,102697.78
2022-10-11T17:44:26.550Z,102696.88
2022-10-11T17:46:32.307Z,102692.47
2022-10-11T17:48:36.775Z,102688.94
2022-10-11T17:50:41.212Z,102692.50
2022-10-11T17:52:42.807Z,102689.00
2022-10-11T17:54:44.320Z,102702.25
2022-10-11T17:56:45.771Z,102690.78
2022-10-11T17:58:48.811Z,102693.47
2022-10-11T18:00:50.847Z,102697.03
2022-10-11T18:02:53.517Z,102697.06
2022-10-11T18:04:56.685Z,102693.53
2022-10-11T18:06:58.177Z,102694.44
2022-10-11T18:09:01.878Z,102693.53
2022-10-11T18:11:04.075Z,102695.31
2022-10-11T18:13:06.789Z,102698.88
2022-10-11T18:15:09.283Z,102696.22
2022-10-11T18:17:10.730Z,102700.66
2022-10-11T18:19:13.281Z,102698.00
2022-10-11T18:21:16.112Z,102692.75
2022-10-11T18:23:18.679Z,102698.94
2022-10-11T18:25:20.300Z,102690.13
2022-10-11T18:27:21.814Z,102697.22
2022-10-11T18:29:23.234Z,102695.44
2022-10-11T18:31:27.635Z,102693.72
2022-10-11T18:33:29.051Z,102694.59
2022-10-11T18:35:30.474Z,102692.84
2022-10-11T18:37:31.912Z,102691.06
2022-10-11T18:39:33.381Z,102697.28
2022-10-11T18:41:36.115Z,102689.34
2022-10-11T18:43:37.681Z,102697.31
2022-10-11T18:45:39.090Z,102694.66
2022-10-11T18:47:40.530Z,102689.38
2022-10-11T18:49:41.978Z,102685.88
2022-10-11T18:51:45.123Z,102690.28
2022-10-11T18:53:47.199Z,102696.47
2022-10-11T18:55:48.695Z,102691.19
2022-10-11T18:57:50.249Z,102690.34
2022-10-11T18:59:52.553Z,102686.84
2022-10-11T19:01:54.017Z,102692.16
2022-10-11T19:03:57.247Z,102687.75
2022-10-11T19:06:02.185Z,102686.00
2022-10-11T19:08:03.689Z,102690.41
2022-10-11T19:10:05.589Z,102679.81
2022-10-11T19:12:07.105Z,102692.16
2022-10-11T19:14:14.848Z,102678.94
2022-10-11T19:16:17.708Z,102680.69
2022-10-11T19:18:20.595Z,102683.34
2022-10-11T19:20:22.123Z,102686.88
2022-10-11T19:22:23.579Z,102685.13
2022-10-11T19:24:27.480Z,102680.72
2022-10-11T19:26:33.325Z,102680.72
2022-10-11T19:28:35.050Z,102684.28
2022-10-11T19:30:36.544Z,102685.16
2022-10-11T19:32:38.007Z,102678.13
2022-10-11T19:34:39.411Z,102685.19
2022-10-11T19:36:44.193Z,102684.28
2022-10-11T19:38:48.330Z,102683.41
2022-10-11T19:40:50.549Z,102686.06
2022-10-11T19:42:51.972Z,102684.31
2022-10-11T19:44:53.392Z,102679.91
2022-10-11T19:46:54.808Z,102679.91
2022-10-11T19:48:56.418Z,102675.50
2022-10-11T19:51:08.403Z,102683.44
2022-10-11T19:53:10.220Z,102678.13
2022-10-11T19:55:11.767Z,102680.78
2022-10-11T19:57:13.225Z,102679.91
2022-10-11T19:59:14.842Z,102676.41
2022-10-11T20:01:19.466Z,102679.91
2022-10-11T20:03:20.915Z,102671.13
2022-10-11T20:05:22.357Z,102676.41
2022-10-11T20:07:24.039Z,102679.06
2022-10-11T20:09:30.375Z,102676.41
2022-10-11T20:11:32.316Z,102676.38
2022-10-11T20:13:35.219Z,102679.91
2022-10-11T20:15:38.012Z,102683.44
2022-10-11T20:17:48.319Z,102684.31
2022-10-11T20:19:49.822Z,102684.31
2022-10-11T20:21:52.105Z,102685.19
2022-10-11T20:23:57.736Z,102686.94
2022-10-11T20:26:12.784Z,102686.06
2022-10-11T20:28:14.268Z,102682.53
2022-10-11T20:30:15.754Z,102689.56
2022-10-11T20:32:17.210Z,102682.50
2022-10-11T20:34:18.755Z,102689.53
2022-10-11T20:36:22.078Z,102680.72
2022-10-11T20:38:23.497Z,102681.59
2022-10-11T20:40:25.119Z,102686.84
2022-10-11T20:42:29.748Z,102681.53
2022-10-11T20:44:31.530Z,102682.41
2022-10-11T20:46:35.081Z,102683.28
2022-10-11T20:48:38.007Z,102674.47
2022-10-11T20:50:43.996Z,102682.38
2022-10-11T20:52:45.848Z,102677.97
2022-10-11T20:54:47.368Z,102677.97
2022-10-11T20:56:48.876Z,102673.56
2022-10-11T20:58:55.158Z,102677.09
2022-10-11T21:00:57.013Z,102678.81
2022-10-11T21:02:58.492Z,102678.78
2022-10-11T21:05:00.032Z,102672.63
2022-10-11T21:07:01.474Z,102679.66
2022-10-11T21:09:02.967Z,102679.63
2022-10-11T21:11:04.873Z,102675.19
2022-10-11T21:13:06.372Z,102679.56
2022-10-11T21:15:08.168Z,102683.94
2022-10-11T21:17:09.591Z,102675.13
2022-10-11T21:19:14.404Z,102677.78
2022-10-11T21:21:15.953Z,102672.47
2022-10-11T21:23:18.897Z,102683.84
2022-10-11T21:25:20.573Z,102675.94
2022-10-11T21:27:21.999Z,102679.44
2022-10-11T21:29:23.421Z,102676.78
2022-10-11T21:31:27.425Z,102685.56
2022-10-11T21:33:31.245Z,102679.41
2022-10-11T21:35:34.012Z,102686.41
2022-10-11T21:37:35.963Z,102687.28
2022-10-11T21:39:37.817Z,102687.25
2022-10-11T21:41:41.918Z,102688.97
2022-10-11T21:43:43.529Z,102695.09
2022-10-11T21:45:45.839Z,102690.69
2022-10-11T21:47:47.340Z,102695.94
2022-10-11T21:49:48.756Z,102697.66
2022-10-11T21:51:50.442Z,102698.50
2022-10-11T21:53:52.510Z,102690.56
2022-10-11T21:55:58.194Z,102693.19
2022-10-11T21:57:59.630Z,102700.22
2022-10-11T22:00:01.075Z,102696.69
2022-10-11T22:02:02.586Z,102695.78
2022-10-11T22:04:04.924Z,102694.88
2022-10-11T22:06:06.532Z,102690.44
2022-10-11T22:08:07.933Z,102693.06
2022-10-11T22:10:09.385Z,102691.28
2022-10-11T22:12:10.814Z,102687.75
2022-10-11T22:14:12.759Z,102684.22
2022-10-11T22:16:14.305Z,102679.81
2022-10-11T22:18:15.844Z,102688.56
2022-10-11T22:20:17.380Z,102687.56
2022-10-11T22:22:18.827Z,102689.31
2022-10-11T22:24:20.319Z,102689.28
2022-10-11T22:26:25.222Z,102691.91
2022-10-11T22:28:26.653Z,102694.50
2022-10-11T22:30:28.196Z,102691.00
2022-10-11T22:32:29.677Z,102698.00
2022-10-11T22:34:32.449Z,102697.09
2022-10-11T22:36:33.967Z,102697.06
2022-10-11T22:38:37.193Z,102689.16
2022-10-11T22:40:41.757Z,102689.16
2022-10-11T22:42:43.226Z,102690.88
2022-10-11T22:44:44.650Z,102687.34
2022-10-11T22:46:46.393Z,102685.59
2022-10-11T22:48:47.871Z,102682.91
2022-10-11T22:50:49.424Z,102686.41
2022-10-11T22:52:50.847Z,102688.09
2022-10-11T22:54:52.277Z,102688.06
2022-10-11T22:56:53.769Z,102688.94
2022-10-11T22:58:55.260Z,102687.16
2022-10-11T23:00:56.684Z,102695.03
2022-10-11T23:02:58.357Z,102692.31
2022-10-11T23:04:59.768Z,102695.78
2022-10-11T23:07:04.789Z,102694.00
2022-10-11T23:09:06.671Z,102693.09
2022-10-11T23:11:08.202Z,102693.06
2022-10-11T23:13:09.627Z,102693.06
2022-10-11T23:15:11.988Z,102696.56
2022-10-11T23:17:13.430Z,102692.13
2022-10-11T23:19:14.869Z,102694.72
2022-10-11T23:21:16.311Z,102694.69
2022-10-11T23:23:17.741Z,102696.41
2022-10-11T23:25:19.172Z,102693.75
2022-10-11T23:27:20.871Z,102704.25
2022-10-11T23:29:22.291Z,102698.06
2022-10-11T23:31:23.767Z,102692.75
2022-10-11T23:33:25.696Z,102699.69
2022-10-11T23:35:27.133Z,102695.28
2022-10-11T23:37:28.608Z,102696.13
2022-10-11T23:39:30.381Z,102697.00
2022-10-11T23:41:31.825Z,102699.66
2022-10-11T23:43:33.260Z,102698.75
2022-10-11T23:45:34.722Z,102706.63
2022-10-11T23:47:36.475Z,102696.09
2022-10-11T23:49:38.167Z,102698.69
2022-10-11T23:51:39.696Z,102696.94
2022-10-11T23:53:41.366Z,102697.78
2022-10-11T23:55:42.892Z,102699.47
2022-10-11T23:57:44.389Z,102699.44